Time;durP1;ratioP1;P1;durP2;ratioP2;P2;SDS_P1;SDS_P2;PMS_P1;PMS_P2;Temp;Humidity;BMP_temperature;BMP_pressure;BME280_temperature;BME280_humidity;BME280_pressure;Samples;Min_cycle;Max_cycle;Signal;HPM_P1;HPM_P2
2021/06/27 00:01:15;;;;;;;4.40;2.72;;;21.70;72.10;;;;;;2346971;53;20950;-68
2021/06/27 00:03:42;;;;;;;3.47;2.28;;;21.60;72.00;;;;;;2348264;53;21510;-68
2021/06/27 00:06:09;;;;;;;4.50;3.12;;;21.60;72.10;;;;;;2347806;53;20967;-67
2021/06/27 00:08:35;;;;;;;3.58;2.37;;;21.60;72.10;;;;;;2347821;53;20942;-66
2021/06/27 00:11:02;;;;;;;3.95;2.67;;;21.50;72.10;;;;;;2535538;52;21054;-66
2021/06/27 00:13:28;;;;;;;4.37;3.10;;;21.50;72.10;;;;;;2347483;53;20974;-66
2021/06/27 00:15:55;;;;;;;4.30;3.00;;;21.50;72.20;;;;;;2346776;53;21472;-68
2021/06/27 00:18:23;;;;;;;5.50;3.53;;;21.50;72.20;;;;;;2328822;54;21026;-66
2021/06/27 00:20:52;;;;;;;3.90;2.75;;;21.40;72.20;;;;;;2348280;53;20966;-64
2021/06/27 00:23:21;;;;;;;4.90;3.92;;;21.30;72.10;;;;;;2345135;53;20974;-66
2021/06/27 00:25:47;;;;;;;5.50;3.60;;;21.40;72.30;;;;;;2348065;53;20942;-67
2021/06/27 00:28:14;;;;;;;5.57;3.15;;;21.30;72.40;;;;;;2344598;53;21086;-69
2021/06/27 00:30:45;;;;;;;5.47;3.33;;;21.30;72.50;;;;;;2349750;53;21745;-67
2021/06/27 00:33:11;;;;;;;4.03;2.85;;;21.30;72.60;;;;;;2347066;53;20945;-67
2021/06/27 00:35:37;;;;;;;4.57;3.05;;;21.30;72.60;;;;;;2588773;52;20946;-66
2021/06/27 00:38:05;;;;;;;4.32;2.97;;;21.30;72.60;;;;;;2588320;52;21850;-65
2021/06/27 00:40:31;;;;;;;3.22;2.22;;;21.20;72.70;;;;;;2347288;53;20985;-66
2021/06/27 00:43:01;;;;;;;5.12;3.45;;;21.20;72.70;;;;;;2346489;53;21573;-66
2021/06/27 00:45:28;;;;;;;4.05;2.90;;;21.20;72.70;;;;;;2418300;52;21052;-66
2021/06/27 00:47:58;;;;;;;4.00;3.00;;;21.20;72.80;;;;;;2353170;53;21047;-66
2021/06/27 00:50:30;;;;;;;3.85;2.67;;;21.10;72.60;;;;;;2325971;54;20980;-67
2021/06/27 00:52:56;;;;;;;4.57;3.47;;;21.10;72.60;;;;;;2348464;53;21714;-66
2021/06/27 00:55:24;;;;;;;5.37;4.12;;;21.10;72.70;;;;;;2342513;53;20980;-68
2021/06/27 00:57:51;;;;;;;5.07;3.53;;;21.10;72.80;;;;;;2346747;53;20936;-66
2021/06/27 01:00:19;;;;;;;4.55;3.00;;;21.00;72.80;;;;;;2561721;52;20973;-68
2021/06/27 01:02:45;;;;;;;4.28;3.17;;;21.10;72.90;;;;;;2346244;53;20942;-67
2021/06/27 01:05:17;;;;;;;4.95;3.10;;;21.00;73.00;;;;;;2381360;53;21011;-65
2021/06/27 01:07:43;;;;;;;4.75;3.22;;;21.00;73.00;;;;;;2345870;53;21747;-68
2021/06/27 01:10:10;;;;;;;4.72;3.05;;;21.00;73.10;;;;;;2345882;53;21008;-66
2021/06/27 01:12:36;;;;;;;5.10;3.00;;;20.90;73.10;;;;;;2344870;53;20934;-65
2021/06/27 01:15:05;;;;;;;6.32;3.50;;;20.90;73.30;;;;;;2346336;53;21090;-66
2021/06/27 01:17:31;;;;;;;4.37;3.17;;;20.90;73.30;;;;;;2347312;53;20954;-66
2021/06/27 01:19:59;;;;;;;5.18;3.83;;;20.90;73.50;;;;;;2346845;53;21004;-68
2021/06/27 01:22:25;;;;;;;4.93;3.55;;;20.90;73.50;;;;;;2349449;53;20930;-66
2021/06/27 01:24:51;;;;;;;5.32;3.70;;;20.90;73.60;;;;;;2350327;53;21001;-66
2021/06/27 01:27:18;;;;;;;4.30;3.05;;;20.90;73.70;;;;;;2346612;53;20940;-66
2021/06/27 01:29:46;;;;;;;6.20;3.40;;;20.90;73.80;;;;;;2348039;53;21002;-68
2021/06/27 01:32:12;;;;;;;4.78;3.08;;;20.90;73.70;;;;;;2343836;53;21905;-66
2021/06/27 01:34:39;;;;;;;4.30;2.78;;;20.90;73.70;;;;;;2347175;53;20938;-65
2021/06/27 01:37:08;;;;;;;5.10;3.22;;;20.90;73.70;;;;;;2345551;54;21708;-66
2021/06/27 01:39:34;;;;;;;4.53;2.90;;;20.90;73.60;;;;;;2346402;53;21133;-68
2021/06/27 01:42:00;;;;;;;3.90;2.70;;;20.90;73.80;;;;;;2345639;54;20970;-68
2021/06/27 01:44:28;;;;;;;3.35;2.10;;;20.90;73.80;;;;;;2348370;53;20982;-65
2021/06/27 01:46:55;;;;;;;3.92;2.55;;;20.90;73.70;;;;;;2347820;53;20994;-65
2021/06/27 01:49:21;;;;;;;5.62;2.22;;;20.90;73.70;;;;;;2346067;53;22056;-65
2021/06/27 01:51:48;;;;;;;5.55;2.10;;;20.90;73.70;;;;;;2349648;53;21478;-66
2021/06/27 01:54:14;;;;;;;4.00;2.30;;;20.90;73.70;;;;;;2346105;53;21818;-68
2021/06/27 01:56:40;;;;;;;3.30;2.00;;;20.80;73.60;;;;;;2346805;53;21775;-65
2021/06/27 01:59:08;;;;;;;4.47;2.53;;;20.80;73.50;;;;;;2344077;53;21415;-66
2021/06/27 02:01:36;;;;;;;3.40;2.17;;;20.80;73.50;;;;;;2589732;52;20956;-66
2021/06/27 02:04:03;;;;;;;3.60;2.40;;;20.80;73.50;;;;;;2344125;54;20985;-66
2021/06/27 02:06:40;;;;;;;3.42;2.10;;;20.80;73.60;;;;;;2469647;52;20997;-66
2021/06/27 02:09:08;;;;;;;4.10;2.60;;;20.80;73.40;;;;;;2348038;53;21018;-65
2021/06/27 02:11:37;;;;;;;3.37;2.17;;;20.80;73.60;;;;;;2582889;52;20956;-68
2021/06/27 02:14:03;;;;;;;3.80;2.40;;;20.80;73.70;;;;;;2349749;53;21171;-66
2021/06/27 02:16:30;;;;;;;4.45;2.33;;;20.80;73.80;;;;;;2343610;53;20920;-66
2021/06/27 02:18:56;;;;;;;3.42;2.17;;;20.70;73.70;;;;;;2344500;54;20909;-66
2021/06/27 02:21:30;;;;;;;5.75;2.55;;;20.70;73.70;;;;;;2348266;53;21072;-65
2021/06/27 02:23:57;;;;;;;3.87;2.37;;;20.70;73.60;;;;;;2346578;54;20969;-67
2021/06/27 02:26:25;;;;;;;4.12;2.55;;;20.70;73.80;;;;;;2467018;53;21418;-66
2021/06/27 02:28:51;;;;;;;5.65;2.67;;;20.70;73.80;;;;;;2488393;52;20969;-69
2021/06/27 02:31:18;;;;;;;3.92;2.58;;;20.70;73.80;;;;;;2344238;54;20920;-66
2021/06/27 02:33:44;;;;;;;4.20;2.85;;;20.70;73.80;;;;;;2347480;54;21460;-66
2021/06/27 02:36:11;;;;;;;3.97;2.65;;;20.70;73.70;;;;;;2348504;53;20948;-66
2021/06/27 02:38:37;;;;;;;3.90;2.55;;;20.70;73.70;;;;;;2344488;53;20936;-66
2021/06/27 02:41:05;;;;;;;5.22;2.50;;;20.70;73.70;;;;;;2349227;53;21372;-68
2021/06/27 02:43:31;;;;;;;4.18;2.92;;;20.70;73.70;;;;;;2588678;52;21407;-68
2021/06/27 02:45:57;;;;;;;3.70;2.65;;;20.70;73.80;;;;;;2344489;53;21965;-66
2021/06/27 02:48:25;;;;;;;3.72;2.35;;;20.70;73.80;;;;;;2350968;53;20938;-66
2021/06/27 02:50:51;;;;;;;4.80;2.42;;;20.70;73.80;;;;;;2349567;53;20922;-65
2021/06/27 02:53:17;;;;;;;4.00;2.78;;;20.60;73.60;;;;;;2349262;53;21799;-66
2021/06/27 02:55:44;;;;;;;3.80;2.40;;;20.60;73.60;;;;;;2344264;53;20988;-66
2021/06/27 02:58:11;;;;;;;3.83;2.58;;;20.60;73.60;;;;;;2347876;53;21044;-66
2021/06/27 03:00:37;;;;;;;5.00;3.20;;;20.60;73.60;;;;;;2345316;53;20950;-65
2021/06/27 03:03:03;;;;;;;4.50;2.97;;;20.60;73.70;;;;;;2348116;53;20962;-66
2021/06/27 03:05:29;;;;;;;5.82;3.30;;;20.50;73.60;;;;;;2327032;54;20957;-65
2021/06/27 03:07:56;;;;;;;4.85;3.17;;;20.50;73.60;;;;;;2345477;53;21801;-68
2021/06/27 03:10:23;;;;;;;4.40;2.90;;;20.50;73.70;;;;;;2348209;53;20969;-67
2021/06/27 03:13:07;;;;;;;5.05;3.00;;;20.50;73.70;;;;;;2344756;53;20933;-65
2021/06/27 03:15:34;;;;;;;4.18;2.78;;;20.50;73.90;;;;;;2315180;55;20944;-67
2021/06/27 03:18:01;;;;;;;4.10;2.75;;;20.50;73.80;;;;;;2348300;53;20982;-66
2021/06/27 03:20:27;;;;;;;3.15;2.00;;;20.50;73.80;;;;;;2346750;53;20934;-67
2021/06/27 03:22:53;;;;;;;4.32;2.50;;;20.40;73.80;;;;;;2523405;52;20950;-66
2021/06/27 03:25:25;;;;;;;3.60;2.65;;;20.40;73.80;;;;;;2348949;53;21053;-66
2021/06/27 03:27:53;;;;;;;6.53;3.17;;;20.40;73.80;;;;;;2344753;53;21008;-66
2021/06/27 03:30:21;;;;;;;6.30;2.90;;;20.40;73.80;;;;;;2347097;53;20927;-68
2021/06/27 03:32:47;;;;;;;3.85;2.40;;;20.40;73.80;;;;;;2350991;53;21649;-68
2021/06/27 03:35:14;;;;;;;4.05;2.72;;;20.40;73.80;;;;;;2351069;53;21057;-65
2021/06/27 03:37:49;;;;;;;4.40;2.67;;;20.40;73.90;;;;;;2348753;53;22047;-66
2021/06/27 03:40:18;;;;;;;3.67;2.60;;;20.30;73.80;;;;;;2326239;53;20952;-66
2021/06/27 03:42:45;;;;;;;4.40;3.10;;;20.30;73.90;;;;;;2347001;53;21029;-68
2021/06/27 03:45:13;;;;;;;5.20;3.42;;;20.30;74.00;;;;;;2350450;53;21430;-67
2021/06/27 03:47:42;;;;;;;4.60;3.40;;;20.30;74.00;;;;;;2345162;53;20949;-67
2021/06/27 03:50:09;;;;;;;4.20;2.97;;;20.30;74.00;;;;;;2326697;54;20954;-66
2021/06/27 03:52:36;;;;;;;5.75;3.00;;;20.30;74.20;;;;;;2351288;53;20935;-66
2021/06/27 03:55:04;;;;;;;6.15;3.40;;;20.20;74.10;;;;;;2345275;53;20954;-65
2021/06/27 03:57:30;;;;;;;4.37;3.12;;;20.20;74.20;;;;;;2330187;53;20982;-66
2021/06/27 03:59:56;;;;;;;4.28;3.22;;;20.20;74.30;;;;;;2346351;53;20952;-67
2021/06/27 04:02:23;;;;;;;4.72;3.15;;;20.20;74.30;;;;;;2354251;53;20963;-66
2021/06/27 04:04:52;;;;;;;4.55;2.97;;;20.20;74.50;;;;;;2344345;53;20928;-68
2021/06/27 04:07:18;;;;;;;5.00;3.67;;;20.20;74.40;;;;;;2352058;53;20947;-68
2021/06/27 04:09:48;;;;;;;5.37;3.60;;;20.20;74.60;;;;;;2588025;52;20976;-67
2021/06/27 04:12:14;;;;;;;4.20;2.97;;;20.30;74.60;;;;;;2329060;54;21680;-65
2021/06/27 04:14:41;;;;;;;4.20;3.15;;;20.30;74.70;;;;;;2348063;54;21453;-64
2021/06/27 04:17:08;;;;;;;5.93;3.05;;;20.30;74.80;;;;;;2345574;53;21113;-66
2021/06/27 04:19:35;;;;;;;4.07;2.72;;;20.20;74.70;;;;;;2328607;54;20982;-66
2021/06/27 04:22:01;;;;;;;4.35;3.00;;;20.30;74.80;;;;;;2346033;53;21307;-68
2021/06/27 04:24:27;;;;;;;6.20;3.45;;;20.30;74.90;;;;;;2591617;52;21513;-66
2021/06/27 04:26:53;;;;;;;4.28;3.15;;;20.30;75.00;;;;;;2345690;53;21550;-66
2021/06/27 04:29:23;;;;;;;4.75;3.20;;;20.30;75.00;;;;;;2347769;53;20963;-65
2021/06/27 04:31:50;;;;;;;5.00;2.95;;;20.30;74.90;;;;;;2347418;53;21034;-68
2021/06/27 04:34:19;;;;;;;4.50;3.17;;;20.40;75.20;;;;;;2587543;52;20962;-65
2021/06/27 04:36:46;;;;;;;4.28;3.05;;;20.40;75.50;;;;;;2554781;52;20944;-66
2021/06/27 04:39:15;;;;;;;5.22;3.47;;;20.40;75.20;;;;;;2541706;52;20972;-66
2021/06/27 04:41:42;;;;;;;3.92;2.80;;;20.40;75.10;;;;;;2346318;53;20946;-68
2021/06/27 04:44:08;;;;;;;4.43;3.28;;;20.40;75.20;;;;;;2347156;53;20932;-66
2021/06/27 04:46:34;;;;;;;6.03;3.83;;;20.40;75.20;;;;;;2375134;52;20972;-68
2021/06/27 04:49:01;;;;;;;5.22;3.72;;;20.40;75.20;;;;;;2346208;53;21001;-66
2021/06/27 04:51:28;;;;;;;5.20;3.75;;;20.40;75.20;;;;;;2347895;53;20915;-65
2021/06/27 04:53:55;;;;;;;4.60;3.40;;;20.50;75.30;;;;;;2348522;53;21026;-68
2021/06/27 04:56:21;;;;;;;6.07;3.37;;;20.50;75.30;;;;;;2344484;53;21487;-66
2021/06/27 04:58:49;;;;;;;4.60;3.10;;;20.50;75.30;;;;;;2345517;53;20996;-67
2021/06/27 05:01:15;;;;;;;4.62;3.60;;;20.50;75.40;;;;;;2488632;52;20963;-67
2021/06/27 05:03:42;;;;;;;4.57;3.30;;;20.50;75.40;;;;;;2347595;53;20930;-68
2021/06/27 05:06:08;;;;;;;5.30;3.22;;;20.50;75.60;;;;;;2585463;52;20918;-66
2021/06/27 05:08:35;;;;;;;4.20;3.05;;;20.60;75.80;;;;;;2587759;52;20954;-65
2021/06/27 05:11:01;;;;;;;5.70;4.40;;;20.60;75.80;;;;;;2346503;53;20961;-66
2021/06/27 05:13:28;;;;;;;6.25;4.05;;;20.60;75.90;;;;;;2351409;53;20975;-65
2021/06/27 05:15:58;;;;;;;5.07;3.75;;;20.70;76.00;;;;;;2347719;53;21002;-67
2021/06/27 05:18:25;;;;;;;5.25;3.58;;;20.70;76.00;;;;;;2341499;53;20916;-66
2021/06/27 05:20:51;;;;;;;6.55;4.78;;;20.70;76.00;;;;;;2347453;53;20930;-67
2021/06/27 05:23:17;;;;;;;5.93;4.37;;;20.70;76.00;;;;;;2590475;52;20966;-67
2021/06/27 05:25:44;;;;;;;6.72;4.90;;;20.80;76.10;;;;;;2344650;53;20976;-67
2021/06/27 05:28:11;;;;;;;7.22;4.70;;;20.80;76.20;;;;;;2351255;53;21014;-68
2021/06/27 05:30:38;;;;;;;7.28;5.60;;;20.80;76.20;;;;;;2346639;54;20960;-68
2021/06/27 05:33:04;;;;;;;5.97;4.37;;;20.90;76.30;;;;;;2325731;52;1684837;-66
2021/06/27 05:35:31;;;;;;;5.80;4.15;;;20.90;76.30;;;;;;2348884;53;21081;-66
2021/06/27 05:37:58;;;;;;;5.93;4.57;;;21.00;76.50;;;;;;2346309;53;21006;-68
2021/06/27 05:40:24;;;;;;;8.30;5.05;;;21.00;76.50;;;;;;2358354;53;20982;-68
2021/06/27 05:42:51;;;;;;;8.48;5.30;;;21.10;76.60;;;;;;2585370;52;20950;-66
2021/06/27 05:45:20;;;;;;;6.47;5.05;;;21.10;76.60;;;;;;2346452;53;21044;-66
2021/06/27 05:47:46;;;;;;;5.95;4.30;;;21.20;76.80;;;;;;2514777;52;21050;-66
2021/06/27 05:50:13;;;;;;;5.40;3.70;;;21.20;76.60;;;;;;2346284;53;21427;-65
2021/06/27 05:52:40;;;;;;;4.82;3.53;;;21.20;76.60;;;;;;2347606;53;20942;-65
2021/06/27 05:55:08;;;;;;;4.43;3.20;;;21.30;76.80;;;;;;2369171;52;21027;-66
2021/06/27 05:57:35;;;;;;;5.55;4.00;;;21.40;76.80;;;;;;2347467;53;20954;-69
2021/06/27 06:00:01;;;;;;;5.37;4.18;;;21.40;76.80;;;;;;2347752;53;22031;-66
2021/06/27 06:02:28;;;;;;;6.35;4.55;;;21.50;76.90;;;;;;2345958;53;20926;-66
2021/06/27 06:04:54;;;;;;;5.55;3.90;;;21.50;76.90;;;;;;2346993;53;20943;-68
2021/06/27 06:07:21;;;;;;;6.82;4.12;;;21.50;77.00;;;;;;2350046;53;21627;-66
2021/06/27 06:09:47;;;;;;;6.03;4.37;;;21.70;77.20;;;;;;2348032;53;21442;-65
2021/06/27 06:12:15;;;;;;;4.82;3.60;;;21.70;77.20;;;;;;2346593;53;21034;-66
2021/06/27 06:14:41;;;;;;;5.53;4.03;;;21.80;77.30;;;;;;2483943;53;21057;-66
2021/06/27 06:17:07;;;;;;;7.78;4.12;;;21.90;77.50;;;;;;2585450;52;21014;-67
2021/06/27 06:19:37;;;;;;;6.22;4.53;;;22.00;77.60;;;;;;2348120;53;20974;-70
2021/06/27 06:22:05;;;;;;;7.75;4.60;;;22.10;77.40;;;;;;2588395;52;21002;-66
2021/06/27 06:24:31;;;;;;;5.57;4.30;;;22.10;77.30;;;;;;2344925;54;20992;-67
2021/06/27 06:26:58;;;;;;;7.07;4.93;;;22.20;77.40;;;;;;2588095;52;21011;-67
2021/06/27 06:29:24;;;;;;;5.70;4.45;;;22.30;77.40;;;;;;2347059;53;21078;-67
2021/06/27 06:31:50;;;;;;;6.05;4.37;;;22.40;77.50;;;;;;2589547;52;21727;-66
2021/06/27 06:34:17;;;;;;;6.05;4.45;;;22.50;77.50;;;;;;2489644;52;20926;-66
2021/06/27 06:36:48;;;;;;;5.80;4.07;;;22.60;77.30;;;;;;2586926;52;21038;-69
2021/06/27 06:39:14;;;;;;;6.07;4.72;;;22.70;77.40;;;;;;2585872;52;21304;-68
2021/06/27 06:41:40;;;;;;;6.87;5.35;;;22.70;77.30;;;;;;2345253;53;21847;-67
2021/06/27 06:44:06;;;;;;;7.87;4.95;;;22.80;77.30;;;;;;2349525;54;20972;-66
2021/06/27 06:46:33;;;;;;;8.27;5.03;;;22.90;77.40;;;;;;2341364;53;21304;-67
2021/06/27 06:48:59;;;;;;;6.65;5.32;;;23.00;77.50;;;;;;2348077;53;20946;-67
2021/06/27 06:51:25;;;;;;;6.35;4.97;;;23.10;77.40;;;;;;2392839;52;20933;-66
2021/06/27 06:53:51;;;;;;;6.68;4.70;;;23.20;77.40;;;;;;2344638;53;20971;-66
2021/06/27 06:56:19;;;;;;;4.40;3.33;;;23.30;77.40;;;;;;2343417;53;21083;-69
2021/06/27 06:58:46;;;;;;;5.80;3.45;;;23.40;77.40;;;;;;2344349;53;20962;-67
2021/06/27 07:01:12;;;;;;;5.25;3.87;;;23.50;77.40;;;;;;2343999;53;21004;-67
2021/06/27 07:03:38;;;;;;;5.60;4.50;;;23.60;77.50;;;;;;2412505;52;20969;-67
2021/06/27 07:06:05;;;;;;;6.87;4.60;;;23.70;77.50;;;;;;2348044;53;21493;-67
2021/06/27 07:08:31;;;;;;;6.00;4.55;;;23.80;77.50;;;;;;2357904;53;21495;-67
2021/06/27 07:10:57;;;;;;;5.68;4.50;;;23.90;77.50;;;;;;2346011;53;20981;-67
2021/06/27 07:13:24;;;;;;;6.28;4.78;;;24.10;77.50;;;;;;2508222;52;21010;-69
2021/06/27 07:15:50;;;;;;;6.03;4.57;;;24.20;77.30;;;;;;2360890;53;21022;-71
2021/06/27 07:18:18;;;;;;;6.68;4.75;;;24.30;77.00;;;;;;2400078;52;21283;-74
2021/06/27 07:20:44;;;;;;;5.35;4.45;;;24.30;76.70;;;;;;2563168;52;20926;-71
2021/06/27 07:23:10;;;;;;;5.97;4.12;;;24.40;76.80;;;;;;2344818;53;20941;-71
2021/06/27 07:25:36;;;;;;;5.57;4.00;;;24.50;76.70;;;;;;2481274;52;20989;-71
2021/06/27 07:28:03;;;;;;;5.85;4.37;;;24.60;76.80;;;;;;2351192;53;21090;-72
2021/06/27 07:30:32;;;;;;;4.97;3.67;;;24.70;76.60;;;;;;2346677;53;20953;-72
2021/06/27 07:32:59;;;;;;;5.47;3.95;;;24.80;76.40;;;;;;2327915;53;20989;-74
2021/06/27 07:35:26;;;;;;;5.10;3.90;;;24.90;76.90;;;;;;2347170;53;20949;-71
2021/06/27 07:37:53;;;;;;;5.55;4.60;;;25.00;76.80;;;;;;2349394;53;21030;-71
2021/06/27 07:40:20;;;;;;;5.43;4.00;;;25.10;76.40;;;;;;2349287;53;21117;-71
2021/06/27 07:42:49;;;;;;;6.30;4.20;;;25.20;76.30;;;;;;2365961;52;21002;-69
2021/06/27 07:45:19;;;;;;;5.70;4.62;;;25.30;76.10;;;;;;2346259;53;21042;-72
2021/06/27 07:47:46;;;;;;;6.12;4.90;;;25.40;75.70;;;;;;2327557;53;21085;-72
2021/06/27 07:50:13;;;;;;;5.30;4.45;;;25.40;75.30;;;;;;2347010;53;20954;-70
2021/06/27 07:52:41;;;;;;;5.30;4.12;;;25.50;75.10;;;;;;2349398;53;20987;-68
2021/06/27 07:55:09;;;;;;;5.57;4.35;;;25.50;75.00;;;;;;2345339;53;20962;-67
2021/06/27 07:57:37;;;;;;;6.20;5.12;;;25.60;75.00;;;;;;2586416;52;20955;-73
2021/06/27 08:00:05;;;;;;;7.32;4.55;;;25.60;75.20;;;;;;2587232;52;20933;-70
2021/06/27 08:02:31;;;;;;;5.90;4.22;;;25.70;75.20;;;;;;2344982;53;21735;-65
2021/06/27 08:04:57;;;;;;;5.20;4.25;;;25.80;75.40;;;;;;2351573;53;20998;-66
2021/06/27 08:07:23;;;;;;;5.93;4.72;;;25.80;75.40;;;;;;2344652;53;20974;-66
2021/06/27 08:09:50;;;;;;;6.15;4.62;;;25.90;75.30;;;;;;2347261;53;20986;-66
2021/06/27 08:12:16;;;;;;;5.78;4.43;;;26.00;75.20;;;;;;2349611;53;21001;-65
2021/06/27 08:14:42;;;;;;;6.10;4.80;;;26.10;74.90;;;;;;2437755;53;20955;-66
2021/06/27 08:17:09;;;;;;;5.53;4.30;;;26.10;74.60;;;;;;2327600;53;21124;-66
2021/06/27 08:19:35;;;;;;;5.12;3.92;;;26.20;74.50;;;;;;2352379;53;21498;-66
2021/06/27 08:22:02;;;;;;;5.62;4.28;;;26.30;74.50;;;;;;2342867;53;20984;-65
2021/06/27 08:24:28;;;;;;;5.25;4.35;;;26.30;74.30;;;;;;2454427;52;20962;-65
2021/06/27 08:26:55;;;;;;;5.80;4.20;;;26.30;74.20;;;;;;2496781;52;20993;-66
2021/06/27 08:29:22;;;;;;;5.37;4.20;;;26.30;74.40;;;;;;2347861;53;21046;-68
2021/06/27 08:31:51;;;;;;;5.72;4.55;;;26.40;74.50;;;;;;2345072;53;21749;-69
2021/06/27 08:34:17;;;;;;;5.30;3.97;;;26.50;74.60;;;;;;2587060;52;20950;-68
2021/06/27 08:36:44;;;;;;;5.43;4.22;;;26.50;74.60;;;;;;2352199;53;21811;-65
2021/06/27 08:39:13;;;;;;;5.20;3.83;;;26.60;74.60;;;;;;2348993;53;20967;-65
2021/06/27 08:41:39;;;;;;;6.15;4.68;;;26.70;74.80;;;;;;2348053;53;20927;-65
2021/06/27 08:44:06;;;;;;;5.97;4.28;;;26.80;74.50;;;;;;2344552;53;20949;-66
2021/06/27 08:46:34;;;;;;;5.90;4.20;;;26.80;74.30;;;;;;2345523;53;21068;-67
2021/06/27 08:49:01;;;;;;;6.45;4.70;;;26.80;74.10;;;;;;2346222;53;20984;-65
2021/06/27 08:51:27;;;;;;;7.35;4.55;;;26.90;74.10;;;;;;2348421;53;21057;-64
2021/06/27 08:53:53;;;;;;;5.93;5.32;;;27.00;74.20;;;;;;2344137;53;21512;-64
2021/06/27 08:56:19;;;;;;;5.40;3.90;;;27.00;74.70;;;;;;2346431;53;20970;-65
2021/06/27 08:58:46;;;;;;;4.18;3.20;;;27.10;74.10;;;;;;2493664;52;21014;-65
2021/06/27 09:01:17;;;;;;;4.35;3.40;;;27.20;74.30;;;;;;2345943;53;20966;-65
2021/06/27 09:03:45;;;;;;;4.90;4.27;;;27.20;73.80;;;;;;2352556;53;20979;-64
2021/06/27 09:06:11;;;;;;;5.37;4.22;;;27.30;74.20;;;;;;2586845;52;21717;-65
2021/06/27 09:08:37;;;;;;;5.45;4.22;;;27.40;74.00;;;;;;2587520;52;20994;-64
2021/06/27 09:11:15;;;;;;;5.43;4.12;;;27.50;73.90;;;;;;2586991;52;20962;-67
2021/06/27 09:13:43;;;;;;;5.03;3.95;;;27.60;72.40;;;;;;2470544;52;20935;-65
2021/06/27 09:16:20;;;;;;;5.32;4.22;;;27.60;73.40;;;;;;2345606;54;20996;-66
2021/06/27 09:18:47;;;;;;;6.00;4.47;;;27.70;72.40;;;;;;2348024;54;21026;-67
2021/06/27 09:21:13;;;;;;;4.57;3.72;;;27.80;73.40;;;;;;2348976;53;21035;-66
2021/06/27 09:23:43;;;;;;;5.10;4.07;;;27.80;73.30;;;;;;2417099;52;21010;-68
2021/06/27 09:26:09;;;;;;;5.07;4.03;;;27.80;73.10;;;;;;2344190;53;20948;-65
2021/06/27 09:29:08;;;;;;;4.70;3.70;;;27.90;73.10;;;;;;2349424;53;20974;-68
2021/06/27 09:31:40;;;;;;;4.90;3.72;;;28.00;71.50;;;;;;2347385;53;20984;-65
2021/06/27 09:34:13;;;;;;;5.25;4.25;;;28.00;72.20;;;;;;2347429;53;20898;-68
2021/06/27 09:36:49;;;;;;;5.30;3.95;;;28.10;72.60;;;;;;2417941;52;20946;-65
2021/06/27 09:39:16;;;;;;;4.78;3.67;;;28.20;71.60;;;;;;2345802;53;21790;-65
2021/06/27 09:42:04;;;;;;;4.80;3.83;;;28.20;72.70;;;;;;2350844;53;20949;-65
2021/06/27 09:44:31;;;;;;;4.25;3.33;;;28.30;71.10;;;;;;2541454;52;21510;-65
2021/06/27 09:46:57;;;;;;;4.72;3.83;;;28.30;72.90;;;;;;2351653;53;21837;-67
2021/06/27 09:49:31;;;;;;;5.25;4.05;;;28.40;72.90;;;;;;2347391;53;20958;-64
2021/06/27 09:52:07;;;;;;;5.87;4.53;;;28.40;71.60;;;;;;2347496;53;21503;-65
2021/06/27 09:54:41;;;;;;;6.18;4.72;;;28.50;71.30;;;;;;2350651;53;21105;-65
2021/06/27 09:57:07;;;;;;;4.82;3.67;;;28.60;71.60;;;;;;2345932;53;20934;-65
2021/06/27 09:59:40;;;;;;;4.80;3.70;;;28.70;72.60;;;;;;2541264;52;21038;-64
2021/06/27 10:02:07;;;;;;;4.72;3.75;;;28.70;72.20;;;;;;2587649;52;20989;-64
2021/06/27 10:04:36;;;;;;;6.95;4.00;;;28.80;72.60;;;;;;2346237;53;20975;-64
2021/06/27 10:07:04;;;;;;;7.40;4.10;;;28.90;72.10;;;;;;2324005;54;20956;-67
2021/06/27 10:09:31;;;;;;;8.18;3.95;;;28.90;72.30;;;;;;2348491;53;21010;-64
2021/06/27 10:12:10;;;;;;;5.40;3.40;;;29.00;72.20;;;;;;2350908;53;20994;-65
2021/06/27 10:14:56;;;;;;;4.80;3.87;;;29.10;71.50;;;;;;2349446;53;20944;-66
2021/06/27 10:17:25;;;;;;;5.25;3.97;;;29.10;70.10;;;;;;2578437;52;21785;-68
2021/06/27 10:19:54;;;;;;;4.70;3.80;;;29.20;71.50;;;;;;2346644;53;21022;-66
2021/06/27 10:22:21;;;;;;;4.50;3.85;;;29.20;71.50;;;;;;2344262;53;20933;-65
2021/06/27 10:24:47;;;;;;;5.35;4.12;;;29.30;71.70;;;;;;2344291;54;20981;-66
2021/06/27 10:27:14;;;;;;;5.00;3.70;;;29.30;71.50;;;;;;2346067;53;21469;-65
2021/06/27 10:29:44;;;;;;;4.75;3.83;;;29.40;71.50;;;;;;2345877;53;20936;-66
2021/06/27 10:32:11;;;;;;;5.00;4.05;;;29.40;70.90;;;;;;2347772;53;21079;-65
2021/06/27 10:34:38;;;;;;;4.68;3.53;;;29.40;71.60;;;;;;2347312;53;20940;-66
2021/06/27 10:37:17;;;;;;;4.60;3.80;;;29.50;71.60;;;;;;2350190;54;20958;-65
2021/06/27 10:43:16;;;;;;;4.53;3.55;;;29.60;70.40;;;;;;2348249;53;21006;-68
2021/06/27 10:46:04;;;;;;;3.72;3.05;;;29.70;70.00;;;;;;2347992;53;21018;-65
2021/06/27 10:48:37;;;;;;;3.58;2.75;;;29.80;69.40;;;;;;2328498;53;21431;-67
2021/06/27 10:51:07;;;;;;;4.47;3.55;;;29.90;70.50;;;;;;2348553;53;21028;-65
2021/06/27 10:54:17;;;;;;;4.40;3.55;;;29.90;70.70;;;;;;2343963;53;20935;-65
2021/06/27 10:57:07;;;;;;;6.22;3.58;;;29.90;68.70;;;;;;2589692;52;20992;-65
2021/06/27 11:00:01;;;;;;;6.28;3.42;;;29.90;68.40;;;;;;2349769;53;20974;-65
2021/06/27 11:02:37;;;;;;;4.07;3.20;;;30.00;68.50;;;;;;2343616;53;21027;-66
2021/06/27 11:05:57;;;;;;;6.40;3.80;;;30.00;69.40;;;;;;2349597;53;21874;-68
2021/06/27 11:09:05;;;;;;;4.12;2.87;;;30.00;67.70;;;;;;2343112;53;20980;-65
2021/06/27 11:11:51;;;;;;;3.87;2.80;;;30.00;68.40;;;;;;2346448;53;20944;-65
2021/06/27 11:14:17;;;;;;;4.22;3.08;;;30.10;68.50;;;;;;2326463;54;21031;-68
2021/06/27 11:17:07;;;;;;;4.53;3.17;;;30.10;69.70;;;;;;2348835;54;21039;-66
2021/06/27 11:19:37;;;;;;;4.75;3.60;;;30.10;67.40;;;;;;2349963;53;20962;-65
2021/06/27 11:22:22;;;;;;;4.37;3.17;;;30.10;68.50;;;;;;2345616;53;21030;-67
2021/06/27 11:24:50;;;;;;;3.78;2.80;;;30.10;66.90;;;;;;2329283;53;20985;-65
2021/06/27 11:27:32;;;;;;;4.40;3.08;;;30.10;68.60;;;;;;2353335;53;21026;-65
2021/06/27 11:30:02;;;;;;;3.78;2.87;;;30.10;66.60;;;;;;2326883;53;21017;-68
2021/06/27 11:32:38;;;;;;;4.05;2.90;;;30.10;68.00;;;;;;2344798;53;21405;-65
2021/06/27 11:35:04;;;;;;;3.72;2.70;;;30.10;66.50;;;;;;2339944;53;21018;-64
2021/06/27 11:37:40;;;;;;;3.25;2.40;;;30.10;67.90;;;;;;2348003;53;21050;-65
2021/06/27 11:40:10;;;;;;;4.75;2.97;;;30.10;66.90;;;;;;2343910;53;21036;-64
2021/06/27 11:42:46;;;;;;;3.72;2.65;;;30.10;68.10;;;;;;2349036;53;20998;-65
2021/06/27 11:46:46;;;;;;;4.18;3.03;;;30.10;66.60;;;;;;2329935;53;20955;-64
2021/06/27 11:49:25;;;;;;;4.10;2.75;;;30.10;66.30;;;;;;2344611;54;21006;-65
2021/06/27 11:51:52;;;;;;;4.05;3.10;;;30.10;67.00;;;;;;2346629;53;20938;-68
2021/06/27 11:54:25;;;;;;;3.55;2.75;;;30.10;67.70;;;;;;2347595;54;20936;-67
2021/06/27 11:57:11;;;;;;;4.28;3.15;;;30.10;66.40;;;;;;2347566;53;20907;-64
2021/06/27 11:59:39;;;;;;;3.90;2.90;;;30.20;65.90;;;;;;2344522;53;20999;-65
2021/06/27 12:02:17;;;;;;;3.62;2.72;;;30.10;67.40;;;;;;2396203;52;20995;-65
2021/06/27 12:05:01;;;;;;;3.83;2.58;;;30.20;66.00;;;;;;2328256;53;20989;-68
2021/06/27 12:07:48;;;;;;;3.70;2.53;;;30.20;65.70;;;;;;2348046;53;21811;-65
2021/06/27 12:10:22;;;;;;;3.97;3.08;;;30.20;67.50;;;;;;2343960;53;20940;-65
2021/06/27 12:13:16;;;;;;;3.42;2.67;;;30.30;67.80;;;;;;2350624;53;21074;-67
2021/06/27 12:15:47;;;;;;;4.57;3.15;;;30.30;66.60;;;;;;2325199;54;21451;-64
2021/06/27 12:18:29;;;;;;;4.93;3.60;;;30.40;68.50;;;;;;2349020;53;21013;-65
2021/06/27 12:20:59;;;;;;;;;;;30.50;67.20;;;;;;2328993;54;21158;-69
2021/06/27 12:23:32;;;;;;;3.60;2.60;;;30.60;67.70;;;;;;2345545;53;20089;-68
2021/06/27 12:26:09;;;;;;;3.37;2.62;;;30.70;68.10;;;;;;2343905;53;20912;-71
2021/06/27 12:28:58;;;;;;;4.22;2.60;;;30.70;67.00;;;;;;2347737;53;21668;-65
2021/06/27 12:31:29;;;;;;;3.67;3.00;;;30.80;68.30;;;;;;2345284;54;21101;-69
2021/06/27 12:34:00;;;;;;;4.07;2.97;;;30.80;67.40;;;;;;2348797;53;20940;-65
2021/06/27 12:36:49;;;;;;;4.65;3.37;;;30.90;68.10;;;;;;2352498;53;21602;-65
2021/06/27 12:39:17;;;;;;;4.07;3.10;;;31.00;67.00;;;;;;2345435;53;20924;-68
2021/06/27 12:41:44;;;;;;;3.95;3.00;;;31.00;67.40;;;;;;2346282;53;21798;-68
2021/06/27 12:44:12;;;;;;;4.18;3.10;;;31.00;67.10;;;;;;2345553;53;20958;-67
2021/06/27 12:46:49;;;;;;;5.07;3.55;;;31.10;66.90;;;;;;2346250;53;20958;-66
2021/06/27 12:49:29;;;;;;;3.78;2.92;;;31.10;65.60;;;;;;2346124;53;20945;-68
2021/06/27 12:52:14;;;;;;;3.78;2.87;;;31.10;66.00;;;;;;2502836;52;21036;-67
2021/06/27 12:54:49;;;;;;;3.85;2.72;;;31.10;64.60;;;;;;2389955;53;20932;-68
2021/06/27 12:57:21;;;;;;;4.95;2.80;;;31.10;65.50;;;;;;2328242;53;20914;-66
2021/06/27 12:59:52;;;;;;;3.37;2.67;;;31.10;65.90;;;;;;2346316;53;20950;-66
2021/06/27 13:02:41;;;;;;;4.22;3.22;;;31.10;66.30;;;;;;2344564;54;20924;-66
2021/06/27 13:05:18;;;;;;;3.60;2.67;;;31.10;65.90;;;;;;2325108;54;20932;-66